Time;durP1;ratioP1;P1;durP2;ratioP2;P2;SDS_P1;SDS_P2;PMS_P1;PMS_P2;Temp;Humidity;BMP_temperature;BMP_pressure;BME280_temperature;BME280_humidity;BME280_pressure;Samples;Min_cycle;Max_cycle;Signal;HPM_P1;HPM_P2
2023/04/06 00:02:06;;;;;;;7.32;5.80;;;2.90;95.10;;;;;;5026149;28;20376;-70
2023/04/06 00:04:32;;;;;;;7.75;6.55;;;2.90;95.10;;;;;;5055523;28;20043;-71
2023/04/06 00:06:58;;;;;;;7.72;6.38;;;2.90;95.00;;;;;;5060222;28;20040;-71
2023/04/06 00:09:23;;;;;;;7.38;6.35;;;2.90;94.80;;;;;;5080407;28;20497;-71
2023/04/06 00:11:49;;;;;;;7.50;6.70;;;2.80;95.00;;;;;;5056972;28;20070;-71
2023/04/06 00:14:17;;;;;;;7.93;7.07;;;2.80;95.40;;;;;;5078646;27;20043;-71
2023/04/06 00:16:43;;;;;;;8.23;6.40;;;2.70;95.70;;;;;;5053422;28;20048;-71
2023/04/06 00:19:09;;;;;;;8.68;6.80;;;2.70;96.00;;;;;;5056835;28;20078;-71
2023/04/06 00:21:34;;;;;;;9.32;6.60;;;2.70;96.20;;;;;;5056070;28;20071;-71
2023/04/06 00:24:00;;;;;;;7.50;6.65;;;2.70;96.20;;;;;;5071027;28;20454;-71
2023/04/06 00:26:26;;;;;;;7.50;6.07;;;2.70;96.40;;;;;;5058217;28;20319;-71
2023/04/06 00:28:52;;;;;;;8.63;7.72;;;2.70;96.60;;;;;;5057434;28;20047;-71
2023/04/06 00:31:18;;;;;;;7.47;6.75;;;2.60;96.60;;;;;;5053758;28;20166;-71
2023/04/06 00:33:44;;;;;;;7.25;6.55;;;2.60;96.60;;;;;;5043520;28;20665;-71
2023/04/06 00:36:10;;;;;;;8.27;6.80;;;2.60;96.60;;;;;;5036694;28;20159;-71
2023/04/06 00:38:36;;;;;;;8.15;6.35;;;2.60;96.60;;;;;;5059076;28;20063;-71
2023/04/06 00:41:03;;;;;;;9.00;7.00;;;2.60;96.90;;;;;;5057813;28;20043;-71
2023/04/06 00:43:32;;;;;;;8.55;6.63;;;2.50;97.10;;;;;;5055592;28;20055;-71
2023/04/06 00:45:58;;;;;;;10.55;7.07;;;2.50;97.00;;;;;;5070880;28;20045;-71
2023/04/06 00:48:24;;;;;;;8.13;6.88;;;2.40;97.10;;;;;;5069692;28;20526;-71
2023/04/06 00:50:53;;;;;;;10.73;7.90;;;2.40;97.40;;;;;;5034325;28;20047;-70
2023/04/06 00:53:18;;;;;;;8.45;6.65;;;2.30;97.50;;;;;;5078581;28;20051;-71
2023/04/06 00:55:44;;;;;;;9.68;7.43;;;2.30;97.60;;;;;;5085420;28;20044;-71
2023/04/06 00:58:10;;;;;;;9.70;7.25;;;2.30;97.60;;;;;;5047744;28;20090;-72
2023/04/06 01:00:39;;;;;;;10.88;7.57;;;2.30;97.70;;;;;;5083743;28;20117;-71
2023/04/06 01:03:06;;;;;;;8.32;7.43;;;2.20;97.70;;;;;;5079383;28;20071;-71
2023/04/06 01:05:40;;;;;;;7.90;7.10;;;2.20;98.10;;;;;;5049586;28;20048;-71
2023/04/06 01:08:06;;;;;;;7.40;6.63;;;2.20;98.20;;;;;;5082958;28;20055;-71
2023/04/06 01:10:32;;;;;;;10.15;7.13;;;2.10;98.30;;;;;;5035568;28;20398;-71
2023/04/06 01:12:58;;;;;;;7.60;6.80;;;2.10;98.60;;;;;;5066205;28;20051;-71
2023/04/06 01:15:25;;;;;;;8.52;6.85;;;2.00;98.90;;;;;;5065806;28;20044;-71
2023/04/06 01:17:51;;;;;;;9.00;7.18;;;2.00;99.00;;;;;;5084285;28;20052;-71
2023/04/06 01:20:20;;;;;;;9.02;7.55;;;2.00;99.00;;;;;;5060364;28;20047;-71
2023/04/06 01:22:46;;;;;;;8.32;7.25;;;2.00;99.10;;;;;;5080551;28;21572;-71
2023/04/06 01:25:12;;;;;;;8.98;7.38;;;2.00;99.50;;;;;;5083187;28;20031;-71
2023/04/06 01:27:41;;;;;;;8.02;7.18;;;2.00;99.60;;;;;;5067511;28;20040;-71
2023/04/06 01:30:07;;;;;;;9.25;7.15;;;2.00;99.60;;;;;;5059032;28;20161;-71
2023/04/06 01:32:33;;;;;;;8.77;7.50;;;2.00;99.70;;;;;;5048190;28;20051;-71
2023/04/06 01:35:02;;;;;;;9.13;7.75;;;2.00;99.90;;;;;;5066528;28;20059;-72
2023/04/06 01:37:31;;;;;;;10.10;7.65;;;2.00;99.90;;;;;;5060895;28;21377;-71
2023/04/06 01:39:57;;;;;;;10.83;7.57;;;2.00;99.90;;;;;;5049541;28;20044;-72
2023/04/06 01:42:23;;;;;;;8.23;7.03;;;2.00;99.90;;;;;;5052913;28;20048;-73
2023/04/06 01:44:49;;;;;;;8.77;7.30;;;2.00;99.90;;;;;;5096497;27;20048;-71
2023/04/06 01:47:18;;;;;;;8.33;7.53;;;2.00;99.90;;;;;;5060315;28;20546;-72
2023/04/06 01:49:44;;;;;;;8.35;7.53;;;2.00;99.90;;;;;;5080882;28;20043;-71
2023/04/06 01:52:09;;;;;;;8.70;7.83;;;1.90;99.90;;;;;;5060554;28;20056;-71
2023/04/06 01:54:35;;;;;;;8.65;7.68;;;2.00;99.90;;;;;;5079107;28;20127;-72
2023/04/06 01:57:01;;;;;;;8.30;7.28;;;1.90;99.90;;;;;;5058795;28;20048;-72
2023/04/06 01:59:27;;;;;;;10.15;7.63;;;2.00;99.90;;;;;;5062746;28;20084;-72
2023/04/06 02:01:53;;;;;;;8.38;7.50;;;2.00;99.90;;;;;;5059859;28;20087;-72
2023/04/06 02:04:18;;;;;;;9.57;7.72;;;2.00;99.90;;;;;;5046878;28;20062;-72
2023/04/06 02:06:44;;;;;;;12.15;8.15;;;1.90;99.90;;;;;;5064435;27;20052;-72
2023/04/06 02:09:10;;;;;;;8.38;7.57;;;1.90;99.90;;;;;;5047293;28;20722;-72
2023/04/06 02:11:36;;;;;;;9.13;7.85;;;1.90;99.90;;;;;;5078909;28;20047;-72
2023/04/06 02:14:02;;;;;;;9.90;7.82;;;1.80;99.90;;;;;;5060287;28;20055;-72
2023/04/06 02:16:27;;;;;;;9.15;8.07;;;1.80;99.90;;;;;;5049745;28;20621;-72
2023/04/06 02:18:53;;;;;;;10.48;8.38;;;1.90;99.90;;;;;;5064795;28;20069;-72
2023/04/06 02:21:20;;;;;;;11.23;8.40;;;1.90;99.90;;;;;;5055413;28;20786;-73
2023/04/06 02:23:49;;;;;;;8.75;7.85;;;1.90;99.90;;;;;;5065275;28;20060;-71
2023/04/06 02:26:15;;;;;;;10.10;8.63;;;1.90;99.90;;;;;;5060639;28;20071;-71
2023/04/06 02:28:41;;;;;;;10.93;8.02;;;1.90;99.90;;;;;;5077745;28;20048;-71
2023/04/06 02:31:08;;;;;;;9.82;8.20;;;1.90;99.90;;;;;;5066985;28;20047;-71
2023/04/06 02:33:34;;;;;;;8.43;7.07;;;1.90;99.90;;;;;;5073185;28;20040;-72
2023/04/06 02:36:00;;;;;;;9.38;7.57;;;2.00;99.90;;;;;;5088103;28;20058;-72
2023/04/06 02:38:26;;;;;;;9.23;8.32;;;1.90;99.90;;;;;;5081545;28;20034;-71
2023/04/06 02:40:52;;;;;;;8.43;7.40;;;1.90;99.90;;;;;;5064535;28;20043;-72
2023/04/06 02:43:18;;;;;;;8.70;7.85;;;1.90;99.90;;;;;;5060478;28;20059;-72
2023/04/06 02:45:44;;;;;;;9.55;8.55;;;1.90;99.90;;;;;;5066442;28;20043;-73
2023/04/06 02:48:10;;;;;;;9.43;8.45;;;1.90;99.90;;;;;;5082530;28;20059;-73
2023/04/06 02:50:36;;;;;;;8.88;7.97;;;1.90;99.90;;;;;;5067816;28;20589;-72
2023/04/06 02:53:02;;;;;;;10.90;8.27;;;1.90;99.90;;;;;;5054512;28;20072;-72
2023/04/06 02:55:27;;;;;;;11.52;8.63;;;1.90;99.90;;;;;;5081448;28;20149;-72
2023/04/06 02:57:53;;;;;;;10.13;8.65;;;1.90;99.90;;;;;;5080823;28;20050;-71
2023/04/06 03:00:19;;;;;;;9.48;8.57;;;1.80;99.90;;;;;;5085908;28;20091;-71
2023/04/06 03:02:45;;;;;;;9.20;8.18;;;1.80;99.90;;;;;;5066424;28;20076;-71
2023/04/06 03:05:11;;;;;;;10.18;8.50;;;1.80;99.90;;;;;;5064976;28;20036;-71
2023/04/06 03:07:37;;;;;;;9.57;8.60;;;1.70;99.90;;;;;;5082107;28;20075;-73
2023/04/06 03:10:03;;;;;;;10.18;9.13;;;1.70;99.90;;;;;;5065315;28;20402;-72
2023/04/06 03:12:28;;;;;;;9.60;8.70;;;1.70;99.90;;;;;;5048807;28;20044;-72
2023/04/06 03:14:54;;;;;;;9.65;8.60;;;1.70;99.90;;;;;;5074686;28;20062;-71
2023/04/06 03:17:20;;;;;;;12.10;9.05;;;1.70;99.90;;;;;;5080783;28;20686;-71
2023/04/06 03:19:46;;;;;;;11.05;9.07;;;1.60;99.90;;;;;;5067258;28;20044;-71
2023/04/06 03:22:11;;;;;;;10.23;9.23;;;1.60;99.90;;;;;;5078763;28;20036;-71
2023/04/06 03:24:37;;;;;;;11.32;9.15;;;1.60;99.90;;;;;;5082261;28;20683;-71
2023/04/06 03:27:03;;;;;;;9.88;8.95;;;1.60;99.90;;;;;;5085290;28;20068;-71
2023/04/06 03:29:29;;;;;;;10.05;9.02;;;1.60;99.90;;;;;;5082417;28;20059;-71
2023/04/06 03:31:55;;;;;;;10.57;9.50;;;1.60;99.90;;;;;;5068039;28;20058;-71
2023/04/06 03:34:21;;;;;;;10.55;9.45;;;1.60;99.90;;;;;;5076344;28;20508;-71
2023/04/06 03:36:47;;;;;;;12.13;8.75;;;1.60;99.90;;;;;;5081501;28;20040;-72
2023/04/06 03:39:13;;;;;;;11.77;9.27;;;1.60;99.90;;;;;;5050342;28;20118;-71
2023/04/06 03:41:39;;;;;;;9.60;8.60;;;1.60;99.90;;;;;;5067454;28;20100;-72
2023/04/06 03:44:05;;;;;;;10.07;9.03;;;1.60;99.90;;;;;;5067097;28;20051;-72
2023/04/06 03:46:31;;;;;;;11.03;9.40;;;1.60;99.90;;;;;;5098720;28;20131;-72
2023/04/06 03:48:57;;;;;;;10.43;9.43;;;1.50;99.90;;;;;;5048573;28;20472;-72
2023/04/06 03:51:23;;;;;;;10.10;9.13;;;1.60;99.90;;;;;;5068594;28;20098;-72
2023/04/06 03:53:49;;;;;;;10.00;9.00;;;1.60;99.90;;;;;;5066668;28;20079;-71
2023/04/06 03:56:17;;;;;;;10.90;9.83;;;1.60;99.90;;;;;;5100218;28;20048;-71
2023/04/06 03:58:45;;;;;;;11.30;9.27;;;1.60;99.90;;;;;;5075625;28;20039;-72
2023/04/06 04:01:11;;;;;;;10.40;9.33;;;1.60;99.90;;;;;;5043739;28;20036;-71
2023/04/06 04:03:37;;;;;;;10.73;9.63;;;1.50;99.90;;;;;;5076226;28;20379;-71
2023/04/06 04:06:03;;;;;;;10.75;9.20;;;1.50;99.90;;;;;;5077406;28;20048;-72
2023/04/06 04:08:29;;;;;;;10.90;9.63;;;1.50;99.90;;;;;;5049272;28;20047;-71
2023/04/06 04:10:58;;;;;;;11.35;10.25;;;1.50;99.90;;;;;;5068036;28;20036;-71
2023/04/06 04:13:24;;;;;;;10.93;9.83;;;1.40;99.90;;;;;;5048715;28;20110;-71
2023/04/06 04:15:49;;;;;;;10.80;9.77;;;1.40;99.90;;;;;;5062834;28;20577;-71
2023/04/06 04:18:15;;;;;;;10.97;9.87;;;1.40;99.90;;;;;;5050172;28;20043;-72
2023/04/06 04:20:41;;;;;;;10.60;9.60;;;1.30;99.90;;;;;;5077507;28;20040;-71
2023/04/06 04:23:07;;;;;;;10.57;9.47;;;1.30;99.90;;;;;;5064426;28;20043;-71
2023/04/06 04:25:32;;;;;;;11.53;10.47;;;1.30;99.90;;;;;;5079985;28;20048;-72
2023/04/06 04:27:58;;;;;;;11.23;10.13;;;1.30;99.90;;;;;;5084956;28;20134;-71
2023/04/06 04:30:24;;;;;;;11.10;10.00;;;1.30;99.90;;;;;;5065500;28;20037;-71
2023/04/06 04:32:50;;;;;;;11.43;10.32;;;1.40;99.90;;;;;;5068856;28;20056;-71
2023/04/06 04:35:16;;;;;;;11.53;10.43;;;1.30;99.90;;;;;;5086228;28;20045;-71
2023/04/06 04:37:42;;;;;;;12.17;10.93;;;1.30;99.90;;;;;;5064686;28;20036;-71
2023/04/06 04:40:09;;;;;;;12.67;10.93;;;1.30;99.90;;;;;;5062875;28;20034;-71
2023/04/06 04:42:35;;;;;;;12.60;10.40;;;1.30;99.90;;;;;;5082255;28;20545;-71
2023/04/06 04:45:03;;;;;;;11.77;10.57;;;1.30;99.90;;;;;;5083991;28;20044;-70
2023/04/06 04:47:30;;;;;;;12.10;10.90;;;1.20;99.90;;;;;;5080830;27;20049;-71
2023/04/06 04:49:55;;;;;;;14.30;11.77;;;1.20;99.90;;;;;;5050325;28;20076;-71
2023/04/06 04:52:21;;;;;;;12.17;10.87;;;1.20;99.90;;;;;;5081862;28;20183;-71
2023/04/06 04:54:47;;;;;;;14.57;11.80;;;1.20;99.90;;;;;;5084406;28;20052;-71
2023/04/06 04:57:13;;;;;;;11.90;10.70;;;1.20;99.90;;;;;;5062466;28;20155;-71
2023/04/06 04:59:39;;;;;;;12.27;11.07;;;1.20;99.90;;;;;;5048635;28;20559;-71
2023/04/06 05:02:07;;;;;;;12.53;11.23;;;1.20;99.90;;;;;;5068455;28;20266;-72
2023/04/06 05:04:33;;;;;;;13.27;11.93;;;1.20;99.90;;;;;;5048960;28;20063;-71
2023/04/06 05:07:09;;;;;;;12.43;11.27;;;1.20;99.90;;;;;;5067854;28;20070;-71
2023/04/06 05:09:35;;;;;;;13.23;11.87;;;1.20;99.90;;;;;;5081463;28;20045;-71
2023/04/06 05:12:01;;;;;;;12.90;11.40;;;1.30;99.90;;;;;;5084191;28;20053;-71
2023/04/06 05:14:27;;;;;;;13.40;12.00;;;1.40;99.90;;;;;;5076897;28;20036;-71
2023/04/06 05:16:54;;;;;;;13.50;11.73;;;1.50;99.90;;;;;;5081660;28;20039;-71
2023/04/06 05:19:20;;;;;;;14.30;12.70;;;1.50;99.90;;;;;;5063023;28;20044;-71
2023/04/06 05:21:46;;;;;;;13.17;11.50;;;1.40;99.90;;;;;;5047560;28;20036;-72
2023/04/06 05:24:12;;;;;;;13.37;12.03;;;1.40;99.90;;;;;;5080942;28;20116;-72
2023/04/06 05:26:37;;;;;;;12.93;11.63;;;1.40;99.90;;;;;;5081611;28;20049;-72
2023/04/06 05:29:03;;;;;;;13.30;12.10;;;1.40;99.90;;;;;;5081551;28;20044;-72
2023/04/06 05:31:32;;;;;;;15.93;12.93;;;1.40;99.90;;;;;;5066410;28;20071;-72
2023/04/06 05:33:58;;;;;;;13.33;12.10;;;1.50;99.90;;;;;;5064509;28;20513;-72
2023/04/06 05:36:27;;;;;;;13.10;11.83;;;1.50;99.90;;;;;;5063162;28;20048;-72
2023/04/06 05:38:53;;;;;;;14.13;12.73;;;1.50;99.90;;;;;;5066121;28;20174;-71
2023/04/06 05:41:20;;;;;;;14.17;12.60;;;1.60;99.90;;;;;;5077754;28;20085;-71
2023/04/06 05:43:45;;;;;;;13.80;12.50;;;1.60;99.90;;;;;;5059153;28;20519;-71
2023/04/06 05:46:11;;;;;;;14.50;12.77;;;1.70;99.90;;;;;;5060704;28;20032;-71
2023/04/06 05:48:37;;;;;;;13.80;12.40;;;1.70;99.90;;;;;;5042370;28;20522;-73
2023/04/06 05:51:05;;;;;;;13.90;12.47;;;1.70;99.90;;;;;;5062055;28;20048;-72
2023/04/06 05:53:32;;;;;;;14.50;13.00;;;1.80;99.90;;;;;;5079378;28;20436;-72
2023/04/06 05:56:01;;;;;;;14.43;12.87;;;1.80;99.90;;;;;;5070076;28;20041;-73
2023/04/06 05:58:27;;;;;;;14.83;13.23;;;1.90;99.90;;;;;;5061280;28;20367;-72
2023/04/06 06:01:04;;;;;;;15.40;13.10;;;1.90;99.90;;;;;;5077116;28;20071;-72
2023/04/06 06:03:30;;;;;;;15.93;12.67;;;1.90;99.90;;;;;;5059164;28;20537;-70
2023/04/06 06:06:03;;;;;;;14.27;12.77;;;2.00;99.90;;;;;;5063565;28;20078;-72
2023/04/06 06:08:35;;;;;;;13.90;12.50;;;2.00;99.90;;;;;;5062855;28;20316;-74
2023/04/06 06:11:02;;;;;;;14.73;13.20;;;2.10;99.90;;;;;;5078384;27;20426;-74
2023/04/06 06:13:27;;;;;;;14.27;12.83;;;2.10;99.90;;;;;;5075937;28;20747;-75
2023/04/06 06:15:53;;;;;;;14.60;12.97;;;2.20;99.90;;;;;;5042533;28;20123;-75
2023/04/06 06:18:19;;;;;;;14.18;12.82;;;2.20;99.90;;;;;;5029572;28;20513;-75
2023/04/06 06:20:45;;;;;;;14.95;13.55;;;2.30;99.90;;;;;;5058509;28;20040;-74
2023/04/06 06:23:11;;;;;;;14.77;13.38;;;2.40;99.90;;;;;;5079026;28;20639;-75
2023/04/06 06:25:37;;;;;;;14.20;12.85;;;2.50;99.90;;;;;;5044984;28;20039;-75
2023/04/06 06:28:03;;;;;;;14.98;13.52;;;2.50;99.90;;;;;;5077957;28;20060;-75
2023/04/06 06:30:31;;;;;;;16.55;13.55;;;2.60;99.90;;;;;;5045570;28;20059;-75
2023/04/06 06:32:57;;;;;;;15.05;13.55;;;2.70;99.90;;;;;;5044715;28;20880;-75
2023/04/06 06:35:24;;;;;;;14.45;13.05;;;2.70;99.90;;;;;;5065040;28;20513;-75
2023/04/06 06:37:50;;;;;;;15.82;13.13;;;2.80;99.90;;;;;;5064639;28;20165;-75
2023/04/06 06:40:17;;;;;;;15.38;13.73;;;2.90;99.90;;;;;;5045900;28;20453;-75
2023/04/06 06:42:43;;;;;;;15.45;13.88;;;2.90;99.90;;;;;;5063006;28;20600;-75
2023/04/06 06:45:10;;;;;;;15.02;13.52;;;3.00;99.90;;;;;;5044131;28;20131;-75
2023/04/06 06:47:35;;;;;;;14.57;13.10;;;3.10;99.90;;;;;;5061604;28;20039;-76
2023/04/06 06:50:03;;;;;;;15.45;13.93;;;3.10;99.90;;;;;;5059750;28;20052;-75
2023/04/06 06:52:28;;;;;;;15.82;13.27;;;3.30;99.90;;;;;;5049465;28;20417;-75
2023/04/06 06:54:54;;;;;;;21.88;14.15;;;3.30;99.90;;;;;;5074809;28;20073;-75
2023/04/06 06:57:20;;;;;;;15.63;14.10;;;3.40;99.90;;;;;;5060423;28;20073;-75
2023/04/06 06:59:46;;;;;;;15.55;13.95;;;3.50;99.90;;;;;;5061593;28;20308;-75
2023/04/06 07:02:12;;;;;;;15.80;14.27;;;3.60;99.90;;;;;;5082611;28;20039;-75
2023/04/06 07:04:40;;;;;;;16.10;14.27;;;3.70;99.90;;;;;;5077100;28;20035;-75
2023/04/06 07:07:12;;;;;;;15.32;13.82;;;3.80;99.90;;;;;;5064499;28;20035;-75
2023/04/06 07:09:38;;;;;;;14.85;13.35;;;3.90;99.90;;;;;;5080686;28;20047;-75
2023/04/06 07:12:16;;;;;;;16.05;14.35;;;4.00;99.90;;;;;;5049589;28;20043;-75
2023/04/06 07:14:42;;;;;;;15.05;13.65;;;4.10;99.90;;;;;;5077464;28;20100;-75
2023/04/06 07:17:09;;;;;;;16.20;14.52;;;4.30;99.90;;;;;;5078635;28;20044;-73
2023/04/06 07:19:35;;;;;;;15.95;14.35;;;4.40;99.90;;;;;;5078233;28;20306;-73
2023/04/06 07:22:03;;;;;;;15.05;13.43;;;4.50;99.90;;;;;;5041625;28;20052;-73
2023/04/06 07:24:38;;;;;;;15.38;13.60;;;4.70;99.90;;;;;;5046638;28;20215;-73
2023/04/06 07:27:07;;;;;;;15.63;13.93;;;4.80;99.90;;;;;;5077378;28;20064;-73
2023/04/06 07:29:35;;;;;;;17.30;13.88;;;5.00;99.90;;;;;;5080058;28;20051;-73
2023/04/06 07:32:02;;;;;;;14.50;13.00;;;5.10;99.90;;;;;;5074429;28;20052;-73
2023/04/06 07:34:28;;;;;;;16.67;14.18;;;5.30;99.90;;;;;;5064128;28;20119;-73
2023/04/06 07:36:54;;;;;;;16.02;13.60;;;5.40;99.90;;;;;;5058654;28;20177;-72
2023/04/06 07:39:20;;;;;;;15.23;13.73;;;5.60;99.90;;;;;;5048315;28;20091;-73
2023/04/06 07:41:46;;;;;;;14.93;13.43;;;5.70;99.80;;;;;;5049295;28;20043;-73
2023/04/06 07:44:12;;;;;;;15.18;13.57;;;5.90;99.60;;;;;;5063917;28;20036;-73
2023/04/06 07:46:41;;;;;;;16.85;14.07;;;6.00;99.50;;;;;;5041905;28;20090;-73
2023/04/06 07:49:06;;;;;;;16.20;14.45;;;6.20;99.30;;;;;;5031328;28;20039;-73
2023/04/06 07:51:32;;;;;;;16.70;13.80;;;6.40;98.60;;;;;;5059360;28;20043;-73
2023/04/06 07:54:01;;;;;;;15.70;14.05;;;6.50;98.10;;;;;;5042675;28;20054;-73
2023/04/06 07:56:27;;;;;;;15.30;13.80;;;6.70;97.80;;;;;;5095330;28;20043;-73
2023/04/06 07:58:56;;;;;;;16.40;13.70;;;6.80;97.50;;;;;;5078997;28;20043;-73
2023/04/06 08:01:28;;;;;;;15.18;13.57;;;6.90;97.00;;;;;;5079958;28;20045;-73
2023/04/06 08:03:55;;;;;;;15.27;13.75;;;7.10;96.80;;;;;;5046128;28;20036;-73
2023/04/06 08:06:21;;;;;;;15.32;13.52;;;7.20;96.30;;;;;;5066954;28;20051;-73
2023/04/06 08:08:47;;;;;;;14.93;13.43;;;7.50;95.50;;;;;;5085680;28;20684;-73
2023/04/06 08:11:12;;;;;;;14.85;13.40;;;7.70;94.60;;;;;;5044725;28;20040;-73
2023/04/06 08:13:38;;;;;;;17.17;14.07;;;7.80;94.00;;;;;;5068159;28;20067;-73
2023/04/06 08:16:04;;;;;;;16.23;14.63;;;8.00;94.10;;;;;;5081371;28;20546;-73
2023/04/06 08:18:30;;;;;;;15.00;13.40;;;8.20;93.90;;;;;;5064813;28;20054;-73
2023/04/06 08:20:56;;;;;;;15.13;13.45;;;8.30;93.30;;;;;;5061302;28;20056;-73
2023/04/06 08:23:22;;;;;;;15.50;12.65;;;8.50;92.80;;;;;;5083074;28;20047;-73
2023/04/06 08:25:48;;;;;;;14.82;13.23;;;8.70;92.00;;;;;;5069130;28;20041;-73
2023/04/06 08:28:14;;;;;;;16.05;14.45;;;8.90;91.60;;;;;;5082572;28;20040;-73
2023/04/06 08:30:43;;;;;;;16.23;13.55;;;9.10;91.10;;;;;;5062996;28;20107;-73
2023/04/06 08:33:09;;;;;;;15.05;13.35;;;9.20;90.70;;;;;;5051779;28;20079;-73
2023/04/06 08:35:40;;;;;;;15.00;13.43;;;9.20;89.20;;;;;;5065513;28;20054;-73
2023/04/06 08:38:06;;;;;;;15.90;13.55;;;9.20;88.80;;;;;;5063220;28;20124;-73
2023/04/06 08:40:38;;;;;;;14.77;13.15;;;9.20;88.10;;;;;;5062473;28;20036;-73
2023/04/06 08:43:09;;;;;;;13.98;12.50;;;9.40;86.40;;;;;;5052685;28;20494;-73
2023/04/06 08:45:35;;;;;;;15.93;13.18;;;9.50;85.60;;;;;;5083050;28;20050;-73
2023/04/06 08:48:04;;;;;;;14.70;13.10;;;9.70;84.00;;;;;;5063630;28;20050;-73
2023/04/06 08:50:31;;;;;;;18.33;12.93;;;9.90;82.50;;;;;;5096682;27;20134;-73
2023/04/06 08:52:57;;;;;;;16.38;13.52;;;10.10;80.90;;;;;;5067294;28;20044;-73
2023/04/06 08:55:23;;;;;;;16.08;13.32;;;10.30;81.30;;;;;;5060611;28;20494;-73
2023/04/06 08:57:49;;;;;;;14.70;13.18;;;10.50;81.40;;;;;;5062362;28;21377;-73
2023/04/06 09:00:16;;;;;;;14.43;13.00;;;10.60;79.20;;;;;;5054082;28;20425;-74
2023/04/06 09:02:46;;;;;;;16.27;13.63;;;10.70;79.10;;;;;;5065397;28;20073;-73
2023/04/06 09:05:12;;;;;;;15.18;13.60;;;10.60;77.50;;;;;;5078381;28;20040;-74
2023/04/06 09:07:39;;;;;;;18.02;13.95;;;10.50;77.90;;;;;;5060790;28;20040;-73
2023/04/06 09:10:15;;;;;;;14.75;13.23;;;10.50;78.10;;;;;;5089360;28;20036;-73
2023/04/06 09:12:44;;;;;;;16.10;14.05;;;10.50;78.00;;;;;;5079896;28;20092;-73
2023/04/06 09:15:21;;;;;;;16.42;14.73;;;10.40;77.80;;;;;;5063718;28;20059;-73
2023/04/06 09:17:46;;;;;;;16.40;14.70;;;10.40;77.40;;;;;;5080503;28;20047;-73
2023/04/06 09:20:12;;;;;;;15.52;13.93;;;10.40;76.30;;;;;;5097613;27;20241;-73
2023/04/06 09:22:41;;;;;;;16.42;14.70;;;10.30;75.40;;;;;;5081511;28;20294;-74
2023/04/06 09:25:09;;;;;;;16.70;14.88;;;10.40;76.60;;;;;;5067277;28;20035;-74
2023/04/06 09:27:38;;;;;;;17.52;15.43;;;10.50;77.00;;;;;;5090429;27;20119;-74
2023/04/06 09:30:13;;;;;;;16.65;14.70;;;10.60;77.20;;;;;;5080107;28;20047;-74
2023/04/06 09:32:50;;;;;;;17.02;15.32;;;10.70;76.20;;;;;;5084142;28;20048;-74
2023/04/06 09:35:19;;;;;;;16.70;14.90;;;10.70;75.00;;;;;;5080398;28;20048;-74
2023/04/06 09:37:47;;;;;;;17.10;15.00;;;10.70;75.80;;;;;;5045005;28;20050;-74
2023/04/06 09:40:13;;;;;;;17.15;15.07;;;10.80;76.90;;;;;;5063047;28;20040;-74
2023/04/06 09:42:41;;;;;;;18.83;16.60;;;10.90;76.00;;;;;;5066402;28;20070;-74
2023/04/06 09:45:08;;;;;;;18.50;16.23;;;11.00;75.00;;;;;;5078329;28;20112;-74
2023/04/06 09:47:36;;;;;;;18.67;16.70;;;11.10;75.30;;;;;;5062659;28;20124;-74
2023/04/06 09:50:07;;;;;;;18.75;16.50;;;11.10;74.70;;;;;;5083427;28;20120;-74
2023/04/06 09:52:37;;;;;;;18.85;16.85;;;11.10;74.30;;;;;;5079427;28;20040;-74
2023/04/06 09:55:05;;;;;;;19.40;17.50;;;11.00;73.80;;;;;;5096332;27;20039;-74
2023/04/06 09:57:52;;;;;;;20.17;17.90;;;11.00;72.90;;;;;;5046871;28;20467;-74
2023/04/06 10:00:23;;;;;;;19.38;17.17;;;11.00;73.10;;;;;;5074457;28;20102;-74
2023/04/06 10:03:39;;;;;;;20.92;18.15;;;11.00;73.50;;;;;;5045131;28;20502;-74
2023/04/06 10:06:10;;;;;;;19.33;17.10;;;11.10;74.90;;;;;;5071018;28;20055;-73
2023/04/06 10:08:40;;;;;;;19.73;17.63;;;11.10;73.50;;;;;;5056422;28;20035;-73
2023/04/06 10:11:07;;;;;;;21.92;19.52;;;11.20;72.60;;;;;;5065704;28;20063;-74
2023/04/06 10:13:33;;;;;;;20.23;18.08;;;11.20;72.90;;;;;;5083075;28;20108;-74
2023/04/06 10:16:01;;;;;;;20.10;17.98;;;11.30;72.80;;;;;;5046376;28;20044;-74
2023/04/06 10:18:30;;;;;;;21.25;19.05;;;11.40;72.60;;;;;;5060676;28;20410;-74
2023/04/06 10:21:12;;;;;;;21.23;19.05;;;11.60;72.50;;;;;;5076907;28;20132;-74
2023/04/06 10:23:54;;;;;;;21.15;18.42;;;11.70;72.10;;;;;;5076469;28;20043;-74
2023/04/06 10:26:21;;;;;;;22.42;19.73;;;11.80;70.80;;;;;;5061997;28;20054;-71
2023/04/06 10:28:48;;;;;;;21.98;19.58;;;11.90;71.40;;;;;;5064601;28;20113;-74
2023/04/06 10:31:14;;;;;;;21.63;18.77;;;11.90;71.60;;;;;;5061989;28;20051;-74
2023/04/06 10:33:41;;;;;;;21.20;18.85;;;12.10;70.80;;;;;;5058430;28;20043;-74
2023/04/06 10:36:11;;;;;;;22.75;19.98;;;12.30;69.70;;;;;;5061616;28;20052;-77
2023/04/06 10:38:38;;;;;;;22.60;20.15;;;12.30;69.20;;;;;;5058739;28;20981;-72
2023/04/06 10:41:09;;;;;;;22.27;19.83;;;12.20;69.50;;;;;;5042525;28;20054;-72
2023/04/06 10:43:36;;;;;;;22.10;19.80;;;12.10;69.00;;;;;;5058806;28;20044;-71
2023/04/06 10:46:03;;;;;;;22.85;20.08;;;12.20;70.00;;;;;;5078702;28;20039;-72
2023/04/06 10:48:46;;;;;;;24.90;21.05;;;12.20;69.60;;;;;;5079480;28;20066;-71
2023/04/06 10:51:16;;;;;;;25.90;23.15;;;12.30;66.40;;;;;;5059779;28;20048;-71
2023/04/06 10:53:47;;;;;;;24.35;21.75;;;12.30;65.80;;;;;;5066125;28;20122;-72
2023/04/06 10:56:17;;;;;;;26.98;22.50;;;12.40;65.60;;;;;;5077116;28;20043;-71
2023/04/06 10:58:57;;;;;;;26.30;23.60;;;12.50;65.30;;;;;;5096511;27;20494;-72
2023/04/06 11:01:26;;;;;;;25.98;23.25;;;12.50;63.70;;;;;;5096000;27;20044;-72
2023/04/06 11:03:58;;;;;;;28.13;25.05;;;12.50;64.50;;;;;;5045864;28;20150;-72
2023/04/06 11:06:26;;;;;;;28.38;25.45;;;12.60;64.30;;;;;;5063727;28;20386;-72
2023/04/06 11:08:56;;;;;;;28.42;24.85;;;12.60;63.00;;;;;;5058003;28;20040;-72
2023/04/06 11:11:26;;;;;;;;;;;12.60;62.80;;;;;;5064123;28;20694;-72
2023/04/06 11:14:01;;;;;;;29.55;26.45;;;12.70;64.40;;;;;;5075311;28;19924;-72
2023/04/06 11:16:33;;;;;;;28.67;25.38;;;12.80;64.50;;;;;;5059543;28;20044;-72
2023/04/06 11:19:05;;;;;;;29.75;26.73;;;12.80;63.70;;;;;;5078745;28;20047;-72
2023/04/06 11:21:48;;;;;;;31.38;27.85;;;12.80;62.80;;;;;;5060472;28;20043;-72
2023/04/06 11:24:16;;;;;;;30.38;26.70;;;12.70;62.00;;;;;;5075944;28;20039;-72
2023/04/06 11:26:48;;;;;;;30.35;27.13;;;12.60;61.80;;;;;;5062457;28;20389;-72
2023/04/06 11:29:17;;;;;;;29.95;26.75;;;12.50;61.90;;;;;;5066609;28;20051;-72
2023/04/06 11:31:46;;;;;;;29.80;26.58;;;12.40;61.80;;;;;;5078114;28;20490;-72
2023/04/06 11:34:13;;;;;;;32.17;28.90;;;12.40;62.00;;;;;;5043044;28;20048;-72
2023/04/06 11:36:44;;;;;;;31.08;27.90;;;12.40;62.60;;;;;;5080255;28;20131;-72
2023/04/06 11:39:11;;;;;;;31.05;27.77;;;12.40;61.60;;;;;;5079611;28;20063;-72
2023/04/06 11:41:37;;;;;;;29.88;26.83;;;12.50;62.20;;;;;;5090507;28;20117;-72
2023/04/06 11:44:05;;;;;;;30.75;26.33;;;12.50;61.40;;;;;;5058422;28;20441;-72
2023/04/06 11:46:31;;;;;;;29.88;26.75;;;12.50;60.70;;;;;;5080277;28;20228;-72
2023/04/06 11:49:03;;;;;;;29.58;26.52;;;12.50;61.10;;;;;;5083217;28;20171;-72
2023/04/06 11:51:35;;;;;;;28.83;25.92;;;12.60;59.60;;;;;;5059503;28;21390;-72
2023/04/06 11:54:01;;;;;;;29.42;26.30;;;12.60;59.40;;;;;;5093061;27;20563;-73
2023/04/06 11:56:28;;;;;;;31.17;27.23;;;12.60;58.40;;;;;;5078137;28;20052;-72
2023/04/06 11:58:56;;;;;;;31.10;26.50;;;12.60;58.10;;;;;;5076703;28;20642;-72
2023/04/06 12:01:22;;;;;;;28.20;25.20;;;12.50;59.20;;;;;;5079119;28;20040;-72
2023/04/06 12:03:49;;;;;;;31.33;26.95;;;12.50;60.20;;;;;;5061356;28;20048;-73
2023/04/06 12:06:15;;;;;;;29.00;25.90;;;12.60;60.30;;;;;;5077360;28;20264;-75
2023/04/06 12:08:41;;;;;;;29.33;26.23;;;12.60;59.60;;;;;;5074612;28;20231;-75
2023/04/06 12:11:07;;;;;;;29.08;26.17;;;12.60;60.70;;;;;;5061360;28;20051;-76
2023/04/06 12:13:33;;;;;;;32.17;27.27;;;12.70;60.30;;;;;;5049223;28;20883;-75
2023/04/06 12:15:58;;;;;;;28.48;25.48;;;12.80;60.40;;;;;;5091545;28;20842;-75
2023/04/06 12:18:25;;;;;;;28.30;25.30;;;12.80;60.00;;;;;;5043183;28;20161;-76
2023/04/06 12:20:51;;;;;;;28.65;25.67;;;12.90;58.80;;;;;;5062292;28;20079;-75
2023/04/06 12:23:21;;;;;;;27.08;24.25;;;13.00;58.70;;;;;;5097900;28;20558;-76
2023/04/06 12:25:47;;;;;;;26.85;24.15;;;13.00;58.10;;;;;;5080916;28;20764;-76
2023/04/06 12:28:13;;;;;;;27.92;24.95;;;13.00;58.10;;;;;;5030871;28;20047;-76
2023/04/06 12:30:40;;;;;;;26.88;24.15;;;13.00;57.60;;;;;;5045228;28;20040;-72
2023/04/06 12:33:06;;;;;;;26.73;24.00;;;13.00;58.80;;;;;;5043036;28;20481;-72
2023/04/06 12:35:37;;;;;;;27.95;24.95;;;13.00;59.60;;;;;;5061748;28;20557;-72
2023/04/06 12:38:03;;;;;;;27.17;24.27;;;13.10;59.00;;;;;;5047424;28;20064;-72
2023/04/06 12:40:35;;;;;;;27.58;23.92;;;13.10;59.10;;;;;;5058147;28;20843;-72
2023/04/06 12:43:01;;;;;;;27.00;24.10;;;13.20;59.50;;;;;;5050362;28;20042;-73